Time;durP1;ratioP1;P1;durP2;ratioP2;P2;SDS_P1;SDS_P2;PMS_P1;PMS_P2;Temp;Humidity;BMP_temperature;BMP_pressure;BME280_temperature;BME280_humidity;BME280_pressure;Samples;Min_cycle;Max_cycle;Signal;HPM_P1;HPM_P2
2022/10/17 00:01:48;;;;;;;9.03;5.22;;;;;;;;;;1736833;82;21008;-61
2022/10/17 00:04:15;;;;;;;16.62;5.47;;;;;;;;;;1718373;82;21050;-60
2022/10/17 00:06:43;;;;;;;9.18;5.47;;;;;;;;;;1724317;82;21005;-61
2022/10/17 00:09:10;;;;;;;8.55;5.28;;;;;;;;;;1739271;82;21049;-61
2022/10/17 00:11:38;;;;;;;9.23;5.37;;;;;;;;;;1732788;82;21021;-61
2022/10/17 00:14:05;;;;;;;8.85;5.95;;;;;;;;;;1737771;82;21099;-62
2022/10/17 00:16:33;;;;;;;10.38;5.58;;;;;;;;;;1735585;82;21520;-62
2022/10/17 00:18:59;;;;;;;9.95;6.00;;;;;;;;;;1718946;82;21040;-61
2022/10/17 00:21:25;;;;;;;8.55;5.65;;;;;;;;;;1723201;82;21493;-61
2022/10/17 00:23:53;;;;;;;11.93;6.12;;;;;;;;;;1729092;82;21028;-60
2022/10/17 00:26:19;;;;;;;9.95;6.17;;;;;;;;;;1725642;82;21072;-60
2022/10/17 00:28:46;;;;;;;9.38;5.83;;;;;;;;;;1727949;82;21009;-61
2022/10/17 00:31:15;;;;;;;12.00;6.10;;;;;;;;;;1704169;82;21575;-61
2022/10/17 00:33:42;;;;;;;9.73;5.92;;;;;;;;;;1728617;82;21044;-61
2022/10/17 00:36:13;;;;;;;14.53;6.60;;;;;;;;;;1731455;82;21040;-61
2022/10/17 00:38:40;;;;;;;10.53;6.17;;;;;;;;;;1730076;82;21091;-62
2022/10/17 00:41:08;;;;;;;11.95;6.03;;;;;;;;;;1740762;82;20981;-61
2022/10/17 00:43:55;;;;;;;9.63;5.70;;;;;;;;;;1746622;81;21051;-61
2022/10/17 00:46:22;;;;;;;12.23;6.90;;;;;;;;;;1730151;82;21521;-60
2022/10/17 00:48:48;;;;;;;13.83;6.70;;;;;;;;;;1730039;81;21076;-61
2022/10/17 00:51:14;;;;;;;10.50;6.62;;;;;;;;;;1736366;82;21033;-61
2022/10/17 00:53:41;;;;;;;10.72;5.47;;;;;;;;;;1732404;82;21024;-62
2022/10/17 00:56:07;;;;;;;9.98;6.30;;;;;;;;;;1727425;82;20998;-62
2022/10/17 00:58:33;;;;;;;12.47;5.05;;;;;;;;;;1731119;82;21128;-62
2022/10/17 01:01:00;;;;;;;8.40;5.20;;;;;;;;;;1724599;82;21060;-61
2022/10/17 01:04:29;;;;;;;9.53;5.58;;;;;;;;;;1813256;79;22846;-61
2022/10/17 01:06:55;;;;;;;8.03;5.20;;;;;;;;;;1760071;81;21051;-61
2022/10/17 01:09:23;;;;;;;8.35;4.72;;;;;;;;;;1719770;82;21063;-62
2022/10/17 01:12:00;;;;;;;17.17;6.00;;;;;;;;;;1755127;81;21083;-62
2022/10/17 01:14:42;;;;;;;10.08;5.40;;;;;;;;;;1761852;80;21135;-61
2022/10/17 01:17:16;;;;;;;8.88;5.75;;;;;;;;;;1761107;81;21500;-61
2022/10/17 01:20:02;;;;;;;10.32;5.65;;;;;;;;;;1761399;81;21017;-62
2022/10/17 01:22:37;;;;;;;8.40;5.78;;;;;;;;;;1761327;81;21103;-61
2022/10/17 01:25:22;;;;;;;8.90;6.20;;;;;;;;;;1773612;80;21037;-61
2022/10/17 01:27:50;;;;;;;8.43;6.03;;;;;;;;;;1724399;83;21044;-62
2022/10/17 01:30:24;;;;;;;9.03;6.33;;;;;;;;;;1723544;83;21060;-62
2022/10/17 01:32:54;;;;;;;11.00;6.20;;;;;;;;;;1727927;83;20989;-60
2022/10/17 01:35:22;;;;;;;9.40;5.60;;;;;;;;;;1725548;82;21144;-61
2022/10/17 01:38:02;;;;;;;9.68;5.83;;;;;;;;;;1725245;83;21556;-61
2022/10/17 01:40:29;;;;;;;10.20;5.87;;;;;;;;;;1718578;83;21118;-60
2022/10/17 01:42:59;;;;;;;10.40;6.10;;;;;;;;;;1712718;84;21037;-60
2022/10/17 01:45:27;;;;;;;9.00;5.15;;;;;;;;;;1715855;82;21048;-60
2022/10/17 01:47:54;;;;;;;8.28;4.92;;;;;;;;;;1725553;83;21119;-60
2022/10/17 01:50:22;;;;;;;7.90;5.03;;;;;;;;;;1725369;83;21528;-60
2022/10/17 01:52:51;;;;;;;8.23;5.53;;;;;;;;;;1724997;83;21612;-60
2022/10/17 01:55:29;;;;;;;8.08;4.83;;;;;;;;;;1720082;82;21480;-60
2022/10/17 01:58:06;;;;;;;11.40;6.17;;;;;;;;;;1725199;83;21084;-60
2022/10/17 02:05:48;;;;;;;7.65;5.67;;;;;;;;;;1633931;86;21021;-61
2022/10/17 02:08:16;;;;;;;11.00;5.92;;;;;;;;;;1625993;85;21125;-61
2022/10/17 02:10:55;;;;;;;10.85;5.58;;;;;;;;;;1635506;86;21079;-61
2022/10/17 02:13:23;;;;;;;9.30;4.87;;;;;;;;;;1634553;88;21514;-60
2022/10/17 02:16:08;;;;;;;8.35;5.42;;;;;;;;;;1637614;86;21085;-61
2022/10/17 02:18:49;;;;;;;6.58;4.65;;;;;;;;;;1657748;85;21107;-62
2022/10/17 02:21:23;;;;;;;8.13;5.10;;;;;;;;;;1670431;84;21079;-62
2022/10/17 02:23:51;;;;;;;8.78;5.22;;;;;;;;;;1670786;86;21067;-62
2022/10/17 02:26:29;;;;;;;8.70;4.80;;;;;;;;;;1659338;86;21053;-61
2022/10/17 02:28:57;;;;;;;9.88;5.72;;;;;;;;;;1654303;85;21552;-62
2022/10/17 02:31:24;;;;;;;9.53;5.67;;;;;;;;;;1668370;86;21052;-62
2022/10/17 02:33:55;;;;;;;8.60;5.03;;;;;;;;;;1666422;86;21100;-62
2022/10/17 02:36:23;;;;;;;10.32;6.03;;;;;;;;;;1645455;86;21108;-62
2022/10/17 02:38:50;;;;;;;10.25;5.85;;;;;;;;;;1664323;84;22024;-62
2022/10/17 02:41:17;;;;;;;10.48;5.80;;;;;;;;;;1668412;86;21050;-62
2022/10/17 02:43:44;;;;;;;8.73;5.92;;;;;;;;;;1668189;86;21079;-62
2022/10/17 02:46:19;;;;;;;11.78;6.35;;;;;;;;;;1659923;85;21029;-62
2022/10/17 02:48:47;;;;;;;8.95;5.85;;;;;;;;;;1637439;85;22118;-62
2022/10/17 02:51:31;;;;;;;11.33;6.00;;;;;;;;;;1668521;86;21041;-62
2022/10/17 02:54:17;;;;;;;8.43;5.58;;;;;;;;;;1667908;86;21088;-62
2022/10/17 02:56:45;;;;;;;11.53;6.42;;;;;;;;;;1664622;86;21057;-62
2022/10/17 02:59:12;;;;;;;10.68;6.30;;;;;;;;;;1638197;84;21133;-62
2022/10/17 03:01:38;;;;;;;8.48;5.28;;;;;;;;;;1639108;85;21076;-62
2022/10/17 03:04:05;;;;;;;10.63;6.22;;;;;;;;;;1633616;87;21672;-62
2022/10/17 03:06:31;;;;;;;10.98;5.75;;;;;;;;;;1617348;89;21073;-62
2022/10/17 03:08:58;;;;;;;9.05;6.15;;;;;;;;;;1627161;87;21071;-62
2022/10/17 03:11:27;;;;;;;10.00;6.17;;;;;;;;;;1630718;88;21078;-61
2022/10/17 03:13:53;;;;;;;10.93;5.10;;;;;;;;;;1609724;88;21564;-61
2022/10/17 03:16:19;;;;;;;9.23;5.60;;;;;;;;;;1580986;89;21113;-61
2022/10/17 03:18:46;;;;;;;11.75;6.28;;;;;;;;;;1616431;88;21052;-61
2022/10/17 03:21:14;;;;;;;11.12;5.55;;;;;;;;;;1621830;88;21054;-61
2022/10/17 03:23:42;;;;;;;14.50;6.25;;;;;;;;;;1598971;89;21134;-63
2022/10/17 03:26:09;;;;;;;15.38;6.83;;;;;;;;;;1625915;88;21040;-62
2022/10/17 03:28:35;;;;;;;15.95;6.40;;;;;;;;;;1619659;88;21094;-62
2022/10/17 03:31:14;;;;;;;10.88;6.03;;;;;;;;;;1613758;87;21572;-62
2022/10/17 03:33:41;;;;;;;10.55;5.28;;;;;;;;;;1630157;88;21516;-61
2022/10/17 03:36:08;;;;;;;8.40;5.42;;;;;;;;;;1604659;88;21050;-61
2022/10/17 03:38:34;;;;;;;9.58;5.83;;;;;;;;;;1598440;88;21542;-60
2022/10/17 03:41:01;;;;;;;12.05;6.03;;;;;;;;;;1606185;88;21081;-60
2022/10/17 03:43:28;;;;;;;8.08;5.30;;;;;;;;;;1630147;88;21058;-63
2022/10/17 03:45:55;;;;;;;10.70;5.90;;;;;;;;;;1607468;88;21529;-61
2022/10/17 03:48:23;;;;;;;12.88;6.40;;;;;;;;;;1611027;88;21147;-60
2022/10/17 03:50:50;;;;;;;9.10;5.87;;;;;;;;;;1605283;88;21087;-61
2022/10/17 03:53:16;;;;;;;9.53;6.17;;;;;;;;;;1606369;89;21091;-61
2022/10/17 03:55:43;;;;;;;9.73;5.50;;;;;;;;;;1606175;88;21122;-61
2022/10/17 03:58:09;;;;;;;12.28;7.03;;;;;;;;;;1600545;88;21129;-63
2022/10/17 04:00:36;;;;;;;13.93;6.12;;;;;;;;;;1593366;88;21097;-61
2022/10/17 04:03:03;;;;;;;10.93;6.92;;;;;;;;;;1630226;87;21624;-61
2022/10/17 04:05:30;;;;;;;14.47;6.67;;;;;;;;;;1628499;86;21097;-62
2022/10/17 04:07:56;;;;;;;12.33;6.75;;;;;;;;;;1618927;88;21134;-61
2022/10/17 04:10:25;;;;;;;9.73;6.20;;;;;;;;;;1616793;88;21596;-61
2022/10/17 04:12:52;;;;;;;12.98;6.35;;;;;;;;;;1626623;88;21118;-62
2022/10/17 04:15:19;;;;;;;11.73;6.60;;;;;;;;;;1627435;88;21093;-62
2022/10/17 04:17:47;;;;;;;12.45;6.85;;;;;;;;;;1615882;88;21107;-62
2022/10/17 04:20:13;;;;;;;11.95;7.33;;;;;;;;;;1604208;88;21580;-63
2022/10/17 04:22:39;;;;;;;12.75;6.65;;;;;;;;;;1609702;88;21532;-63
2022/10/17 04:25:06;;;;;;;21.23;7.72;;;;;;;;;;1599644;89;21097;-63
2022/10/17 04:27:34;;;;;;;18.25;10.65;;;;;;;;;;1600789;88;21140;-63
2022/10/17 04:30:01;;;;;;;18.73;9.33;;;;;;;;;;1606762;88;21101;-62
2022/10/17 04:32:29;;;;;;;13.88;8.73;;;;;;;;;;1618123;87;21093;-62
2022/10/17 04:34:58;;;;;;;13.43;7.47;;;;;;;;;;1603464;87;21156;-63
2022/10/17 04:37:25;;;;;;;13.40;6.97;;;;;;;;;;1602572;87;21073;-63
2022/10/17 04:39:52;;;;;;;13.60;7.37;;;;;;;;;;1586636;88;21108;-63
2022/10/17 04:42:19;;;;;;;9.75;5.87;;;;;;;;;;1602091;87;21603;-63
2022/10/17 04:44:45;;;;;;;9.33;6.17;;;;;;;;;;1602171;87;21098;-63
2022/10/17 04:47:13;;;;;;;9.83;6.08;;;;;;;;;;1605478;87;21062;-63
2022/10/17 04:49:39;;;;;;;13.25;6.70;;;;;;;;;;1604565;87;21071;-64
2022/10/17 04:52:07;;;;;;;9.55;6.30;;;;;;;;;;1604316;87;21231;-63
2022/10/17 04:54:39;;;;;;;9.45;5.97;;;;;;;;;;1607171;87;21730;-61
2022/10/17 04:57:09;;;;;;;8.98;6.08;;;;;;;;;;1608411;87;21070;-63
2022/10/17 04:59:36;;;;;;;10.85;6.72;;;;;;;;;;1607590;87;21064;-62
2022/10/17 05:02:04;;;;;;;14.25;7.00;;;;;;;;;;1608282;87;21120;-63
2022/10/17 05:04:31;;;;;;;8.95;5.42;;;;;;;;;;1607341;87;21152;-63
2022/10/17 05:06:59;;;;;;;9.13;4.97;;;;;;;;;;1606045;87;21129;-62
2022/10/17 05:09:39;;;;;;;11.03;5.83;;;;;;;;;;1604477;87;22483;-63
2022/10/17 05:12:06;;;;;;;10.90;5.55;;;;;;;;;;1605124;87;21086;-62
2022/10/17 05:14:32;;;;;;;12.00;6.65;;;;;;;;;;1608482;87;21105;-62
2022/10/17 05:17:00;;;;;;;11.20;6.92;;;;;;;;;;1607402;87;21088;-62
2022/10/17 05:19:28;;;;;;;10.60;5.90;;;;;;;;;;1607962;87;21112;-63
2022/10/17 05:21:54;;;;;;;11.88;6.15;;;;;;;;;;1607642;87;22158;-64
2022/10/17 05:24:20;;;;;;;9.20;5.70;;;;;;;;;;1605683;87;21085;-61
2022/10/17 05:26:49;;;;;;;11.40;5.85;;;;;;;;;;1574833;89;21596;-63
2022/10/17 05:29:16;;;;;;;10.18;5.55;;;;;;;;;;1602142;87;21145;-64
2022/10/17 05:31:44;;;;;;;8.75;5.17;;;;;;;;;;1602141;87;21120;-64
2022/10/17 05:34:10;;;;;;;11.12;5.50;;;;;;;;;;1602957;87;21086;-63
2022/10/17 05:36:37;;;;;;;8.00;5.28;;;;;;;;;;1602490;87;21608;-62
2022/10/17 05:39:04;;;;;;;9.13;5.72;;;;;;;;;;1607697;87;21072;-63
2022/10/17 05:41:32;;;;;;;9.05;5.78;;;;;;;;;;1605012;87;21096;-62
2022/10/17 05:43:58;;;;;;;10.85;5.85;;;;;;;;;;1606615;87;21120;-62
2022/10/17 05:46:26;;;;;;;9.98;6.40;;;;;;;;;;1608105;87;21075;-62
2022/10/17 05:48:54;;;;;;;9.15;5.17;;;;;;;;;;1603840;87;21097;-61
2022/10/17 05:51:21;;;;;;;8.40;5.45;;;;;;;;;;1604667;87;21646;-63
2022/10/17 05:53:47;;;;;;;12.50;5.78;;;;;;;;;;1610210;87;21615;-63
2022/10/17 05:56:15;;;;;;;13.40;8.53;;;;;;;;;;1606511;87;21077;-63
2022/10/17 05:58:42;;;;;;;16.90;9.15;;;;;;;;;;1605906;87;21527;-64
2022/10/17 06:01:10;;;;;;;15.83;6.75;;;;;;;;;;1601978;87;21140;-63
2022/10/17 06:03:37;;;;;;;10.63;5.80;;;;;;;;;;1606092;86;21123;-63
2022/10/17 06:06:07;;;;;;;9.63;6.00;;;;;;;;;;1617062;87;21106;-63
2022/10/17 06:08:35;;;;;;;10.60;6.10;;;;;;;;;;1617139;86;21607;-63
2022/10/17 06:11:01;;;;;;;10.45;6.28;;;;;;;;;;1612588;87;21100;-63
2022/10/17 06:13:29;;;;;;;9.90;6.37;;;;;;;;;;1614910;87;21595;-63
2022/10/17 06:15:57;;;;;;;12.07;6.10;;;;;;;;;;1627902;87;21058;-64
2022/10/17 06:18:25;;;;;;;13.58;6.25;;;;;;;;;;1623393;87;21599;-62
2022/10/17 06:20:52;;;;;;;10.82;6.17;;;;;;;;;;1629035;87;21056;-63
2022/10/17 06:23:19;;;;;;;9.28;6.17;;;;;;;;;;1631957;87;21052;-62
2022/10/17 06:25:50;;;;;;;10.55;5.60;;;;;;;;;;1605220;87;21095;-63
2022/10/17 06:28:16;;;;;;;8.48;5.53;;;;;;;;;;1611287;88;21001;-62
2022/10/17 06:30:43;;;;;;;10.68;6.30;;;;;;;;;;1629760;88;21061;-63
2022/10/17 06:33:10;;;;;;;10.98;6.10;;;;;;;;;;1632037;87;21068;-63
2022/10/17 06:35:37;;;;;;;13.00;5.72;;;;;;;;;;1622829;87;21104;-63
2022/10/17 06:38:04;;;;;;;9.83;5.83;;;;;;;;;;1614408;87;21520;-63
2022/10/17 06:40:31;;;;;;;9.35;5.97;;;;;;;;;;1626081;87;21030;-63
2022/10/17 06:42:58;;;;;;;10.38;6.28;;;;;;;;;;1634356;87;21468;-63
2022/10/17 06:45:26;;;;;;;17.25;6.95;;;;;;;;;;1612910;87;21111;-63
2022/10/17 06:48:01;;;;;;;9.25;5.90;;;;;;;;;;1600116;89;21063;-63
2022/10/17 06:50:45;;;;;;;14.70;5.58;;;;;;;;;;1613252;87;21091;-64
2022/10/17 06:53:23;;;;;;;11.45;6.10;;;;;;;;;;1613895;87;21048;-63
2022/10/17 06:56:07;;;;;;;10.53;5.90;;;;;;;;;;1610679;87;21118;-62
2022/10/17 06:58:39;;;;;;;11.83;6.20;;;;;;;;;;1595947;87;21046;-63
2022/10/17 07:01:10;;;;;;;9.58;6.00;;;;;;;;;;1629572;87;21123;-63
2022/10/17 07:03:37;;;;;;;12.03;6.45;;;;;;;;;;1619720;87;21112;-64
2022/10/17 07:06:03;;;;;;;11.00;5.58;;;;;;;;;;1632448;86;21033;-63
2022/10/17 07:08:30;;;;;;;12.30;5.50;;;;;;;;;;1642563;86;21019;-62
2022/10/17 07:11:02;;;;;;;8.53;5.58;;;;;;;;;;1635986;86;21088;-63
2022/10/17 07:13:28;;;;;;;10.80;5.15;;;;;;;;;;1637187;86;21086;-63
2022/10/17 07:16:00;;;;;;;9.18;5.78;;;;;;;;;;1627249;86;21077;-62
2022/10/17 07:18:24;;;;;;;14.43;5.05;;;;;;;;;;1629044;86;21088;-63
2022/10/17 07:20:53;;;;;;;9.68;5.75;;;;;;;;;;1626982;87;21077;-64
2022/10/17 07:23:20;;;;;;;11.60;5.55;;;;;;;;;;1628510;86;21025;-63
2022/10/17 07:25:46;;;;;;;10.00;5.83;;;;;;;;;;1639534;86;21037;-63
2022/10/17 07:28:13;;;;;;;10.43;5.47;;;;;;;;;;1634560;86;21078;-63
2022/10/17 07:30:40;;;;;;;11.22;6.00;;;;;;;;;;1633644;86;21049;-64
2022/10/17 07:33:08;;;;;;;10.18;5.28;;;;;;;;;;1630301;86;21069;-63
2022/10/17 07:35:34;;;;;;;7.30;4.80;;;;;;;;;;1627663;86;21073;-63
2022/10/17 07:38:00;;;;;;;19.87;5.92;;;;;;;;;;1602884;86;22113;-63
2022/10/17 07:40:26;;;;;;;7.72;4.37;;;;;;;;;;1639153;86;21582;-63
2022/10/17 07:42:55;;;;;;;10.58;4.95;;;;;;;;;;1646829;86;21021;-63
2022/10/17 07:45:22;;;;;;;9.00;4.60;;;;;;;;;;1615581;88;21559;-62
2022/10/17 07:47:49;;;;;;;7.50;4.95;;;;;;;;;;1608233;87;22291;-65
2022/10/17 07:50:16;;;;;;;9.05;5.03;;;;;;;;;;1617755;86;21131;-64
2022/10/17 07:52:42;;;;;;;7.42;4.30;;;;;;;;;;1629293;86;21046;-65
2022/10/17 07:55:08;;;;;;;7.53;4.42;;;;;;;;;;1639989;86;21081;-65
2022/10/17 07:57:35;;;;;;;8.45;5.08;;;;;;;;;;1648906;86;21093;-65
2022/10/17 08:00:01;;;;;;;7.83;4.50;;;;;;;;;;1644970;86;21068;-66
2022/10/17 08:02:28;;;;;;;8.08;4.67;;;;;;;;;;1636925;86;21093;-65
2022/10/17 08:04:54;;;;;;;7.87;4.60;;;;;;;;;;1650889;86;21077;-65
2022/10/17 08:07:20;;;;;;;7.80;4.22;;;;;;;;;;1594594;88;21108;-65
2022/10/17 08:09:48;;;;;;;9.95;4.65;;;;;;;;;;1567135;89;21112;-64
2022/10/17 08:12:14;;;;;;;6.85;4.25;;;;;;;;;;1594261;90;21513;-67
2022/10/17 08:14:41;;;;;;;9.85;4.62;;;;;;;;;;1569276;91;21133;-64
2022/10/17 08:17:08;;;;;;;8.00;4.60;;;;;;;;;;1591020;90;21573;-64
2022/10/17 08:19:39;;;;;;;5.83;4.45;;;;;;;;;;1592049;90;21076;-65
2022/10/17 08:22:05;;;;;;;10.23;4.40;;;;;;;;;;1572523;90;21066;-65
2022/10/17 08:24:32;;;;;;;10.45;4.67;;;;;;;;;;1570095;90;21089;-63
2022/10/17 08:26:59;;;;;;;9.85;4.70;;;;;;;;;;1585366;89;21145;-65
2022/10/17 08:29:26;;;;;;;6.78;4.53;;;;;;;;;;1600213;89;21327;-65
2022/10/17 08:31:52;;;;;;;8.10;4.78;;;;;;;;;;1580198;89;21146;-66
2022/10/17 08:34:19;;;;;;;8.53;4.50;;;;;;;;;;1596761;88;21083;-65
2022/10/17 08:36:45;;;;;;;10.15;5.00;;;;;;;;;;1582872;89;21624;-64
2022/10/17 08:39:12;;;;;;;7.20;4.25;;;;;;;;;;1588814;89;21086;-64
2022/10/17 08:41:41;;;;;;;6.45;4.05;;;;;;;;;;1586331;89;21587;-64
2022/10/17 08:44:16;;;;;;;8.33;4.45;;;;;;;;;;1580098;90;22229;-65
2022/10/17 08:46:43;;;;;;;8.03;4.30;;;;;;;;;;1584860;90;21520;-64
2022/10/17 08:49:14;;;;;;;9.38;4.97;;;;;;;;;;1588061;89;21061;-64
2022/10/17 08:51:42;;;;;;;6.58;4.50;;;;;;;;;;1581186;89;21636;-64
2022/10/17 08:54:19;;;;;;;8.55;4.50;;;;;;;;;;1581000;88;21111;-64
2022/10/17 08:56:47;;;;;;;8.00;4.30;;;;;;;;;;1595385;88;21553;-64
2022/10/17 08:59:15;;;;;;;7.65;3.95;;;;;;;;;;1600945;88;21630;-65
2022/10/17 09:01:47;;;;;;;6.70;4.25;;;;;;;;;;1609740;88;21136;-65
2022/10/17 09:04:20;;;;;;;6.58;3.90;;;;;;;;;;1583346;88;21103;-64
2022/10/17 09:06:58;;;;;;;8.38;4.70;;;;;;;;;;1586385;88;21087;-64
2022/10/17 09:09:30;;;;;;;4.75;3.40;;;;;;;;;;1636131;87;21493;-63
2022/10/17 09:12:15;;;;;;;7.42;3.85;;;;;;;;;;1637879;86;21107;-65
2022/10/17 09:14:47;;;;;;;10.88;3.95;;;;;;;;;;1641905;87;21139;-63
2022/10/17 09:17:32;;;;;;;7.87;3.87;;;;;;;;;;1628721;86;21570;-62
2022/10/17 09:20:00;;;;;;;7.95;3.77;;;;;;;;;;1618643;86;21127;-66
2022/10/17 09:22:30;;;;;;;7.87;4.10;;;;;;;;;;1628326;86;21581;-64
2022/10/17 09:24:57;;;;;;;9.58;3.87;;;;;;;;;;1626866;88;21142;-65
2022/10/17 09:27:24;;;;;;;7.58;3.98;;;;;;;;;;1635984;86;21503;-65
2022/10/17 09:29:54;;;;;;;6.95;4.50;;;;;;;;;;1628780;86;21063;-65
2022/10/17 09:32:22;;;;;;;10.03;4.80;;;;;;;;;;1608207;86;21101;-63
2022/10/17 09:34:48;;;;;;;12.33;4.72;;;;;;;;;;1606837;89;21023;-63
2022/10/17 09:37:15;;;;;;;10.13;5.65;;;;;;;;;;1614307;87;21085;-61
2022/10/17 09:39:41;;;;;;;6.42;4.10;;;;;;;;;;1628726;88;21561;-62
2022/10/17 09:42:09;;;;;;;10.48;4.10;;;;;;;;;;1615021;86;21011;-61
2022/10/17 09:44:49;;;;;;;7.45;3.90;;;;;;;;;;1622803;86;21120;-63
2022/10/17 09:47:23;;;;;;;6.90;4.12;;;;;;;;;;1617314;87;21096;-65
2022/10/17 09:49:49;;;;;;;9.23;3.98;;;;;;;;;;1612619;86;21617;-62
2022/10/17 09:52:18;;;;;;;6.75;4.20;;;;;;;;;;1612056;86;21118;-64
2022/10/17 09:54:46;;;;;;;21.60;5.17;;;;;;;;;;1617662;87;21049;-65
2022/10/17 09:57:13;;;;;;;6.45;3.95;;;;;;;;;;1615670;87;21121;-65
2022/10/17 09:59:43;;;;;;;8.13;3.90;;;;;;;;;;1600321;87;21630;-66
2022/10/17 10:02:14;;;;;;;8.55;3.90;;;;;;;;;;1628832;86;21147;-65
2022/10/17 10:04:49;;;;;;;7.87;4.20;;;;;;;;;;1632715;87;21048;-66
2022/10/17 10:07:16;;;;;;;8.93;4.87;;;;;;;;;;1641297;86;21072;-66
2022/10/17 10:09:44;;;;;;;9.45;5.30;;;;;;;;;;1611825;87;21092;-66
2022/10/17 10:12:27;;;;;;;6.62;4.12;;;;;;;;;;1612173;86;21077;-66
2022/10/17 10:14:53;;;;;;;7.85;4.30;;;;;;;;;;1555647;90;21093;-66
2022/10/17 10:17:37;;;;;;;7.72;4.05;;;;;;;;;;1565215;90;21092;-66
2022/10/17 10:20:06;;;;;;;7.03;4.17;;;;;;;;;;1596179;88;21537;-65
2022/10/17 10:22:33;;;;;;;6.80;4.65;;;;;;;;;;1611795;87;21046;-65
2022/10/17 10:25:06;;;;;;;6.75;4.10;;;;;;;;;;1609041;87;21595;-65
2022/10/17 10:27:32;;;;;;;6.62;4.22;;;;;;;;;;1623129;87;21039;-64
2022/10/17 10:29:58;;;;;;;5.80;3.80;;;;;;;;;;1630206;87;21093;-65
2022/10/17 10:32:26;;;;;;;7.10;4.03;;;;;;;;;;1607135;87;21107;-65
2022/10/17 10:34:59;;;;;;;7.28;4.17;;;;;;;;;;1636055;86;21075;-65
2022/10/17 10:37:27;;;;;;;9.00;4.03;;;;;;;;;;1619760;87;21057;-65
2022/10/17 10:39:55;;;;;;;9.45;4.37;;;;;;;;;;1621217;86;21076;-65
2022/10/17 10:42:25;;;;;;;6.97;3.80;;;;;;;;;;1614945;87;21052;-66
2022/10/17 10:44:53;;;;;;;7.03;4.17;;;;;;;;;;1619785;86;21114;-66
2022/10/17 10:47:21;;;;;;;7.50;4.20;;;;;;;;;;1606346;87;21081;-65
2022/10/17 10:49:49;;;;;;;9.40;4.72;;;;;;;;;;1611261;87;21176;-65
2022/10/17 10:52:23;;;;;;;9.13;4.25;;;;;;;;;;1615502;87;21577;-65
2022/10/17 10:54:54;;;;;;;8.15;3.72;;;;;;;;;;1586110;89;21153;-65
2022/10/17 10:57:20;;;;;;;7.28;4.25;;;;;;;;;;1577678;90;21082;-66
2022/10/17 10:59:48;;;;;;;6.22;4.05;;;;;;;;;;1589652;90;21138;-64
2022/10/17 11:02:28;;;;;;;9.38;4.00;;;;;;;;;;1600669;90;21205;-65
2022/10/17 11:05:02;;;;;;;8.80;4.15;;;;;;;;;;1594558;89;21096;-65
2022/10/17 11:07:30;;;;;;;8.75;4.67;;;;;;;;;;1600809;87;21098;-65
2022/10/17 11:10:01;;;;;;;8.43;4.50;;;;;;;;;;1625076;86;21576;-66
2022/10/17 11:12:35;;;;;;;8.73;4.42;;;;;;;;;;1635510;86;21057;-64
2022/10/17 11:15:22;;;;;;;6.17;4.12;;;;;;;;;;1601056;88;21098;-65
2022/10/17 11:17:54;;;;;;;5.35;3.80;;;;;;;;;;1619800;86;21017;-65
2022/10/17 11:20:22;;;;;;;8.35;4.53;;;;;;;;;;1616326;87;21106;-63
2022/10/17 11:22:51;;;;;;;10.98;4.55;;;;;;;;;;1623942;86;21058;-63
2022/10/17 11:25:21;;;;;;;7.17;4.45;;;;;;;;;;1623186;87;21104;-64
2022/10/17 11:27:48;;;;;;;6.37;4.22;;;;;;;;;;1618266;86;21052;-64
2022/10/17 11:30:14;;;;;;;7.37;4.70;;;;;;;;;;1630323;86;21034;-65
2022/10/17 11:32:53;;;;;;;6.83;4.72;;;;;;;;;;1624598;87;21055;-65
2022/10/17 11:35:22;;;;;;;6.53;4.30;;;;;;;;;;1626907;86;21067;-65
2022/10/17 11:37:56;;;;;;;8.60;4.60;;;;;;;;;;1626756;87;21067;-64
2022/10/17 11:40:30;;;;;;;10.23;5.47;;;;;;;;;;1605645;87;21116;-65
2022/10/17 11:42:58;;;;;;;9.20;4.70;;;;;;;;;;1604934;89;21106;-64
2022/10/17 11:45:25;;;;;;;8.20;4.70;;;;;;;;;;1610687;86;21062;-66
2022/10/17 11:47:56;;;;;;;6.67;3.80;;;;;;;;;;1626763;87;20977;-65
2022/10/17 11:50:24;;;;;;;5.95;4.08;;;;;;;;;;1617155;88;21066;-66
2022/10/17 11:52:52;;;;;;;7.80;3.95;;;;;;;;;;1615963;86;21117;-64
2022/10/17 11:55:20;;;;;;;7.58;4.10;;;;;;;;;;1627349;87;21531;-65
2022/10/17 11:58:06;;;;;;;7.40;4.78;;;;;;;;;;1615749;86;21049;-64
2022/10/17 12:00:37;;;;;;;7.58;4.33;;;;;;;;;;1606964;86;21079;-63
2022/10/17 12:03:06;;;;;;;7.37;4.42;;;;;;;;;;1618021;86;21131;-63
2022/10/17 12:05:40;;;;;;;7.53;4.87;;;;;;;;;;1623711;86;21045;-64
2022/10/17 12:08:11;;;;;;;15.63;4.45;;;;;;;;;;1630589;87;21084;-63
2022/10/17 12:10:40;;;;;;;7.53;4.67;;;;;;;;;;1607856;87;21111;-64
2022/10/17 12:13:25;;;;;;;10.15;4.28;;;;;;;;;;1614115;86;21120;-63
2022/10/17 12:15:51;;;;;;;13.30;4.25;;;;;;;;;;1615015;86;21039;-64
2022/10/17 12:18:18;;;;;;;7.42;4.10;;;;;;;;;;1619035;86;21103;-63
2022/10/17 12:20:52;;;;;;;14.40;4.00;;;;;;;;;;1584671;88;21588;-65
2022/10/17 12:23:19;;;;;;;9.63;4.15;;;;;;;;;;1618747;85;22268;-63
2022/10/17 12:25:49;;;;;;;6.80;3.87;;;;;;;;;;1617727;86;21054;-63
2022/10/17 12:28:31;;;;;;;5.53;3.42;;;;;;;;;;1617091;86;21096;-64
2022/10/17 12:31:20;;;;;;;6.83;4.08;;;;;;;;;;1619173;86;21105;-63
2022/10/17 12:33:53;;;;;;;8.65;5.03;;;;;;;;;;1630201;86;21095;-63
2022/10/17 12:36:21;;;;;;;9.43;5.08;;;;;;;;;;1624207;86;21037;-63
2022/10/17 12:38:47;;;;;;;10.03;5.17;;;;;;;;;;1610590;86;21084;-63
2022/10/17 12:41:14;;;;;;;8.53;5.28;;;;;;;;;;1613732;86;21013;-64
2022/10/17 12:43:47;;;;;;;9.65;5.67;;;;;;;;;;1614878;87;21047;-65
2022/10/17 12:46:15;;;;;;;11.35;7.08;;;;;;;;;;1615201;86;21107;-66
2022/10/17 12:48:43;;;;;;;7.90;5.28;;;;;;;;;;1627097;86;20996;-65
2022/10/17 12:51:20;;;;;;;10.13;6.40;;;;;;;;;;1627983;86;21100;-66
2022/10/17 12:53:59;;;;;;;8.70;5.45;;;;;;;;;;1624508;86;21111;-66
2022/10/17 12:56:36;;;;;;;10.78;6.03;;;;;;;;;;1645982;86;21112;-66
2022/10/17 12:59:14;;;;;;;10.38;4.97;;;;;;;;;;1620739;86;21085;-66
2022/10/17 13:01:42;;;;;;;5.95;3.58;;;;;;;;;;1622563;86;21109;-66
2022/10/17 13:04:08;;;;;;;6.05;4.05;;;;;;;;;;1620728;86;21140;-64
2022/10/17 13:06:38;;;;;;;7.62;4.00;;;;;;;;;;1632295;86;21043;-64
2022/10/17 13:09:04;;;;;;;6.50;4.10;;;;;;;;;;1627663;88;21105;-67
2022/10/17 13:11:33;;;;;;;7.60;4.53;;;;;;;;;;1639406;86;21093;-66
2022/10/17 13:13:59;;;;;;;7.45;4.08;;;;;;;;;;1612264;87;21119;-65
2022/10/17 13:16:27;;;;;;;9.55;4.17;;;;;;;;;;1639958;86;21089;-65
2022/10/17 13:21:15;;;;;;;9.13;4.80;;;;;;;;;;1795297;78;23389;-65
2022/10/17 13:23:44;;;;;;;11.33;4.58;;;;;;;;;;1771204;80;20988;-65
2022/10/17 13:26:14;;;;;;;21.17;6.05;;;;;;;;;;1753263;80;21097;-65
2022/10/17 13:28:42;;;;;;;14.73;5.05;;;;;;;;;;1785240;80;20994;-65
2022/10/17 13:31:27;;;;;;;8.95;4.60;;;;;;;;;;1760584;80;22079;-64
2022/10/17 13:33:55;;;;;;;8.00;4.47;;;;;;;;;;1762712;80;21517;-65
2022/10/17 13:36:21;;;;;;;8.83;4.58;;;;;;;;;;1752596;80;21042;-64
2022/10/17 13:38:47;;;;;;;7.22;4.60;;;;;;;;;;1762434;80;21064;-66
2022/10/17 13:41:16;;;;;;;7.83;4.20;;;;;;;;;;1772402;80;21006;-66
2022/10/17 13:43:43;;;;;;;11.40;5.17;;;;;;;;;;1768736;80;21578;-69
2022/10/17 13:46:10;;;;;;;11.80;5.00;;;;;;;;;;1766884;80;21008;-69
2022/10/17 13:48:37;;;;;;;17.15;6.83;;;;;;;;;;1771808;80;21524;-69
2022/10/17 13:51:04;;;;;;;10.72;4.80;;;;;;;;;;1764816;80;21096;-68
2022/10/17 13:53:31;;;;;;;20.08;6.53;;;;;;;;;;1741451;81;21104;-62
2022/10/17 13:55:59;;;;;;;16.48;4.65;;;;;;;;;;1758078;80;20965;-64
2022/10/17 13:58:26;;;;;;;10.23;4.35;;;;;;;;;;1761069;81;21028;-64
2022/10/17 14:00:52;;;;;;;8.80;4.30;;;;;;;;;;1760290;80;21042;-65
2022/10/17 14:03:19;;;;;;;17.98;5.22;;;;;;;;;;1737298;82;21063;-64
2022/10/17 14:06:06;;;;;;;10.72;5.25;;;;;;;;;;1728797;81;21076;-65
2022/10/17 14:08:32;;;;;;;19.95;5.47;;;;;;;;;;1731163;81;20988;-65
2022/10/17 14:10:59;;;;;;;24.52;5.70;;;;;;;;;;1734243;81;21025;-67
2022/10/17 14:13:28;;;;;;;10.15;4.55;;;;;;;;;;1736871;81;21586;-66
2022/10/17 14:15:57;;;;;;;8.75;4.60;;;;;;;;;;1733589;81;21036;-64
2022/10/17 14:18:26;;;;;;;13.70;5.80;;;;;;;;;;1750408;81;21039;-63
2022/10/17 14:20:54;;;;;;;9.48;5.03;;;;;;;;;;1759443;81;21102;-64
2022/10/17 14:23:28;;;;;;;8.73;5.15;;;;;;;;;;1724826;82;21590;-65
2022/10/17 14:26:11;;;;;;;11.93;4.40;;;;;;;;;;1724769;81;21564;-67
2022/10/17 14:28:38;;;;;;;26.65;5.58;;;;;;;;;;1722847;81;21079;-66
2022/10/17 14:31:09;;;;;;;23.12;10.15;;;;;;;;;;1742313;81;20956;-64
2022/10/17 14:33:35;;;;;;;18.67;8.40;;;;;;;;;;1735160;81;21083;-66
2022/10/17 14:36:02;;;;;;;13.98;6.15;;;;;;;;;;1740002;81;21027;-65
2022/10/17 14:38:29;;;;;;;10.80;6.50;;;;;;;;;;1754661;81;21094;-64
2022/10/17 14:40:57;;;;;;;10.55;5.55;;;;;;;;;;1723474;82;21489;-65
2022/10/17 14:43:24;;;;;;;10.23;4.62;;;;;;;;;;1724907;82;21080;-65
2022/10/17 14:45:50;;;;;;;25.08;5.20;;;;;;;;;;1727322;81;21092;-65
2022/10/17 14:48:17;;;;;;;11.45;4.75;;;;;;;;;;1728090;82;21007;-66
2022/10/17 14:50:44;;;;;;;9.93;4.80;;;;;;;;;;1724820;83;21516;-65
2022/10/17 14:53:12;;;;;;;7.78;4.80;;;;;;;;;;1721324;83;21069;-65
2022/10/17 14:55:39;;;;;;;23.70;5.95;;;;;;;;;;1725521;82;21099;-67
2022/10/17 14:58:20;;;;;;;12.93;5.03;;;;;;;;;;1731195;81;21045;-66
2022/10/17 15:00:46;;;;;;;9.70;5.83;;;;;;;;;;1724650;82;22114;-66